Time;durP1;ratioP1;P1;durP2;ratioP2;P2;SDS_P1;SDS_P2;PMS_P1;PMS_P2;Temp;Humidity;BMP_temperature;BMP_pressure;BME280_temperature;BME280_humidity;BME280_pressure;Samples;Min_cycle;Max_cycle;Signal;HPM_P1;HPM_P2
2022/09/23 00:00:04;;;;;;;666.90;613.60;;;;;;;15.08;58.18;99744.97;327124;30;1947;-76
2022/09/23 00:00:14;;;;;;;667.67;614.38;;;;;;;15.05;57.54;99740.72;323677;30;2581;-77
2022/09/23 00:00:25;;;;;;;683.47;629.87;;;;;;;15.05;57.64;99739.88;320819;30;1276;-76
2022/09/23 00:00:35;;;;;;;685.40;631.70;;;;;;;15.05;57.71;99739.88;322075;30;2387;-76
2022/09/23 00:00:46;;;;;;;698.70;644.67;;;;;;;15.05;58.05;99747.78;318821;30;2294;-76
2022/09/23 00:01:01;;;;;;;699.83;645.83;;;;;;;15.03;57.62;99747.88;317360;31;885;-76
2022/09/23 00:01:13;;;;;;;718.65;664.00;;;;;;;15.03;57.76;99734.69;318465;30;1511;-76
2022/09/23 00:01:23;;;;;;;737.25;681.65;;;;;;;15.03;57.39;99747.88;316297;31;920;-76
2022/09/23 00:01:34;;;;;;;741.33;685.47;;;;;;;15.06;57.63;99736.28;313311;31;1822;-76
2022/09/23 00:01:45;;;;;;;750.72;694.05;;;;;;;15.07;57.87;99738.00;314455;31;1360;-76
2022/09/23 00:01:57;;;;;;;771.08;713.22;;;;;;;15.07;57.83;99748.53;313673;31;1247;-76
2022/09/23 00:02:09;;;;;;;786.13;727.83;;;;;;;15.05;57.78;99745.13;309158;31;2619;-76
2022/09/23 00:02:19;;;;;;;768.25;711.85;;;;;;;15.07;57.90;99744.13;308773;31;2402;-76
2022/09/23 00:02:30;;;;;;;773.60;717.17;;;;;;;15.03;58.06;99744.38;307850;31;3692;-75
2022/09/23 00:02:41;;;;;;;773.05;716.75;;;;;;;15.01;58.01;99743.63;308430;31;4714;-75
2022/09/23 00:02:52;;;;;;;784.10;727.40;;;;;;;15.00;57.85;99747.19;308218;31;3361;-75
2022/09/23 00:03:03;;;;;;;783.30;726.45;;;;;;;15.00;57.82;99739.28;306587;31;3913;-75
2022/09/23 00:03:14;;;;;;;783.10;726.17;;;;;;;15.01;57.92;99748.88;302010;32;3399;-75
2022/09/23 00:03:27;;;;;;;781.45;724.72;;;;;;;15.04;58.20;99743.44;304292;32;1197;-75
2022/09/23 00:03:40;;;;;;;776.08;719.67;;;;;;;15.06;58.05;99737.16;306942;32;3545;-75
2022/09/23 00:03:51;;;;;;;765.68;709.60;;;;;;;15.06;57.52;99742.41;306353;32;2490;-75
2022/09/23 00:04:02;;;;;;;775.10;718.58;;;;;;;15.06;57.90;99744.19;305986;32;1960;-75
2022/09/23 00:04:12;;;;;;;785.20;728.07;;;;;;;15.07;57.98;99743.25;303222;32;879;-75
2022/09/23 00:04:23;;;;;;;789.23;731.93;;;;;;;15.09;57.82;99741.41;305819;32;2757;-75
2022/09/23 00:04:33;;;;;;;774.20;717.55;;;;;;;15.10;57.88;99743.94;304777;32;3293;-76
2022/09/23 00:04:43;;;;;;;769.43;713.30;;;;;;;15.10;58.19;99743.09;300933;32;4013;-76
2022/09/23 00:04:54;;;;;;;770.10;713.70;;;;;;;15.06;57.64;99744.19;295143;33;1406;-76
2022/09/23 00:05:05;;;;;;;785.33;728.40;;;;;;;15.08;57.37;99742.34;299666;32;4423;-76
2022/09/23 00:05:15;;;;;;;783.25;726.45;;;;;;;15.08;57.49;99737.91;298148;32;4911;-76
2022/09/23 00:05:26;;;;;;;775.75;719.40;;;;;;;15.07;57.29;99748.53;297400;33;1498;-76
2022/09/23 00:05:37;;;;;;;768.78;712.67;;;;;;;15.07;57.82;99738.00;293472;33;4046;-76
2022/09/23 00:05:57;;;;;;;769.00;712.87;;;;;;;15.07;57.83;99735.34;292828;33;4586;-76
2022/09/23 00:06:10;;;;;;;755.15;699.35;;;;;;;15.09;57.87;99739.59;296896;33;3468;-76
2022/09/23 00:06:21;;;;;;;747.03;691.45;;;;;;;15.09;57.74;99736.13;295176;33;3205;-76
2022/09/23 00:06:32;;;;;;;744.22;688.82;;;;;;;15.08;57.66;99737.91;292333;33;4020;-76
2022/09/23 00:06:42;;;;;;;758.13;702.13;;;;;;;15.07;57.60;99738.84;288589;34;1637;-76
2022/09/23 00:06:53;;;;;;;759.33;703.22;;;;;;;15.06;57.04;99741.56;291922;33;4862;-75
2022/09/23 00:07:03;;;;;;;771.77;715.40;;;;;;;15.04;57.64;99743.44;289723;33;5482;-75
2022/09/23 00:07:14;;;;;;;765.20;709.17;;;;;;;15.04;57.42;99739.00;285134;34;6778;-75
2022/09/23 00:07:24;;;;;;;763.37;707.37;;;;;;;15.03;57.23;99741.75;286467;34;805;-76
2022/09/23 00:07:35;;;;;;;765.88;709.85;;;;;;;15.03;57.57;99739.97;285486;34;6938;-76
2022/09/23 00:07:45;;;;;;;768.47;712.37;;;;;;;15.03;57.60;99742.59;286395;33;5822;-76
2022/09/23 00:07:56;;;;;;;772.63;716.28;;;;;;;15.03;57.64;99739.97;291106;34;812;-76
2022/09/23 00:08:07;;;;;;;762.10;705.87;;;;;;;15.03;57.90;99741.75;289690;33;6332;-76
2022/09/23 00:08:17;;;;;;;756.67;700.63;;;;;;;15.00;57.57;99737.50;290089;33;4630;-76
2022/09/23 00:08:28;;;;;;;744.67;689.33;;;;;;;15.01;57.56;99743.63;290085;34;844;-76
2022/09/23 00:08:38;;;;;;;746.83;691.45;;;;;;;15.03;57.64;99739.09;285377;34;1352;-76
2022/09/23 00:08:49;;;;;;;753.47;697.93;;;;;;;15.02;57.63;99745.31;285872;34;7051;-76
2022/09/23 00:09:00;;;;;;;750.70;695.28;;;;;;;15.01;57.40;99735.72;282536;34;7305;-76
2022/09/23 00:09:10;;;;;;;745.00;689.83;;;;;;;15.01;57.72;99743.63;277256;35;1381;-76
2022/09/23 00:09:20;;;;;;;739.22;684.17;;;;;;;14.98;57.75;99740.22;277531;35;8613;-76
2022/09/23 00:09:31;;;;;;;747.83;692.57;;;;;;;15.00;57.86;99741.91;279791;34;8994;-75
2022/09/23 00:09:41;;;;;;;751.40;695.95;;;;;;;15.00;57.62;99736.63;281649;35;1707;-75
2022/09/23 00:11:34;;;;;;;737.72;683.16;;;;;;;15.10;57.26;99738.66;2501981;27;20336;-76
2022/09/23 00:11:45;;;;;;;815.17;758.10;;;;;;;15.11;57.44;99731.59;350144;28;4035;-75
2022/09/23 00:11:55;;;;;;;818.70;761.50;;;;;;;15.12;57.16;99738.59;345935;28;5067;-75
2022/09/23 00:12:06;;;;;;;819.47;762.20;;;;;;;15.11;57.10;99737.72;348780;28;1978;-75
2022/09/23 00:12:16;;;;;;;824.67;767.15;;;;;;;15.11;57.16;99734.25;349086;28;1962;-75
2022/09/23 00:12:27;;;;;;;828.03;770.38;;;;;;;15.10;57.09;99737.81;345822;28;3300;-75
2022/09/23 00:12:37;;;;;;;841.23;783.13;;;;;;;15.11;57.31;99742.16;349996;28;1416;-75
2022/09/23 00:12:48;;;;;;;848.88;790.50;;;;;;;15.11;57.04;99737.72;348872;28;762;-75
2022/09/23 00:12:58;;;;;;;855.27;796.77;;;;;;;15.11;57.03;99740.38;350164;28;1353;-75
2022/09/23 00:13:09;;;;;;;849.22;791.00;;;;;;;15.10;57.35;99735.19;350315;28;886;-75
2022/09/23 00:13:20;;;;;;;848.25;790.13;;;;;;;15.10;57.43;99732.56;347464;28;896;-75
2022/09/23 00:13:30;;;;;;;841.93;784.00;;;;;;;15.10;57.03;99732.56;349992;28;1217;-75
2022/09/23 00:13:42;;;;;;;844.03;786.00;;;;;;;15.10;57.26;99735.19;349942;28;1322;-75
2022/09/23 00:13:57;;;;;;;840.78;782.65;;;;;;;15.11;57.38;99739.53;348267;28;1191;-75
2022/09/23 00:14:08;;;;;;;835.13;777.08;;;;;;;15.09;57.36;99736.13;346121;28;1501;-75
2022/09/23 00:14:20;;;;;;;832.20;774.30;;;;;;;15.09;57.66;99736.13;344608;28;1206;-75
2022/09/23 00:14:30;;;;;;;838.42;780.38;;;;;;;15.10;57.49;99735.19;344860;28;857;-75
2022/09/23 00:14:41;;;;;;;832.23;774.37;;;;;;;15.10;57.73;99740.47;344600;28;1584;-75
2022/09/23 00:14:51;;;;;;;830.90;773.13;;;;;;;15.10;57.79;99738.66;346183;28;1069;-75
2022/09/23 00:15:02;;;;;;;834.78;776.95;;;;;;;15.11;58.08;99740.38;343236;28;1239;-75
2022/09/23 00:15:13;;;;;;;836.72;778.83;;;;;;;15.10;57.86;99738.66;345646;28;936;-75
2022/09/23 00:15:24;;;;;;;828.08;770.47;;;;;;;15.11;57.50;99742.16;346012;28;1229;-75
2022/09/23 00:15:38;;;;;;;828.08;770.45;;;;;;;15.11;57.45;99732.47;343622;28;1524;-75
2022/09/23 00:15:48;;;;;;;839.35;781.30;;;;;;;15.13;57.40;99735.84;344500;28;1277;-75
2022/09/23 00:16:07;;;;;;;837.10;779.08;;;;;;;15.15;57.39;99736.63;342805;28;985;-75
2022/09/23 00:16:19;;;;;;;831.42;773.60;;;;;;;15.15;57.46;99741.03;343360;28;929;-75
2022/09/23 00:16:32;;;;;;;826.47;768.75;;;;;;;15.14;57.22;99740.19;344221;28;1412;-76
2022/09/23 00:16:43;;;;;;;823.40;765.78;;;;;;;15.16;57.28;99738.28;344806;28;909;-76
2022/09/23 00:16:54;;;;;;;831.20;773.27;;;;;;;15.14;57.37;99732.28;345994;28;1189;-76
2022/09/23 00:17:04;;;;;;;833.90;775.95;;;;;;;15.15;57.46;99736.63;343947;28;1497;-75
2022/09/23 00:17:15;;;;;;;836.63;778.67;;;;;;;15.16;57.31;99732.19;345288;28;1176;-75
2022/09/23 00:17:26;;;;;;;827.58;769.95;;;;;;;15.14;57.43;99734.91;343420;28;1457;-76
2022/09/23 00:17:37;;;;;;;831.53;773.80;;;;;;;15.13;57.47;99733.22;340681;28;1229;-76
2022/09/23 00:17:47;;;;;;;822.47;764.92;;;;;;;15.15;57.43;99730.50;344372;28;932;-76
2022/09/23 00:17:57;;;;;;;822.25;764.70;;;;;;;15.12;57.56;99730.69;345350;28;1209;-76
2022/09/23 00:18:08;;;;;;;818.07;760.70;;;;;;;15.14;57.46;99734.06;344806;28;1154;-75
2022/09/23 00:18:19;;;;;;;814.95;757.75;;;;;;;15.12;57.62;99730.69;340679;29;1367;-75
2022/09/23 00:18:30;;;;;;;805.25;748.33;;;;;;;15.12;57.43;99734.16;338079;29;893;-75
2022/09/23 00:18:41;;;;;;;801.50;744.75;;;;;;;15.12;57.35;99731.53;339068;28;3288;-75
2022/09/23 00:18:51;;;;;;;800.53;743.75;;;;;;;15.11;57.67;99731.59;339118;28;4240;-74
2022/09/23 00:19:02;;;;;;;810.03;752.93;;;;;;;15.12;57.57;99736.78;342782;28;3147;-74
2022/09/23 00:19:12;;;;;;;805.55;748.53;;;;;;;15.15;57.48;99736.63;342664;28;1795;-75
2022/09/23 00:19:23;;;;;;;804.85;747.95;;;;;;;15.15;57.53;99733.97;341478;28;5239;-75
2022/09/23 00:19:34;;;;;;;803.40;746.50;;;;;;;15.14;57.62;99724.38;339011;29;1245;-75
2022/09/23 00:19:44;;;;;;;807.75;750.70;;;;;;;15.16;57.46;99742.75;341331;28;1363;-75
2022/09/23 00:19:55;;;;;;;807.63;750.58;;;;;;;15.11;57.48;99734.25;343208;28;1364;-75
2022/09/23 00:20:08;;;;;;;805.20;748.27;;;;;;;15.11;57.22;99728.97;339360;29;1189;-75
2022/09/23 00:20:18;;;;;;;801.58;744.72;;;;;;;15.09;57.39;99726.44;343055;28;1498;-75
2022/09/23 00:20:28;;;;;;;802.40;745.55;;;;;;;15.10;57.61;99724.63;344564;28;1912;-75
2022/09/23 00:20:39;;;;;;;796.67;739.87;;;;;;;15.11;57.58;99731.59;345319;28;1446;-75
2022/09/23 00:20:50;;;;;;;793.33;736.63;;;;;;;15.13;57.75;99729.72;343856;28;1164;-75
2022/09/23 00:21:04;;;;;;;784.67;728.07;;;;;;;15.14;57.45;99734.06;341907;28;1336;-75
2022/09/23 00:21:14;;;;;;;790.67;733.95;;;;;;;15.12;57.62;99731.53;338979;29;1065;-75
2022/09/23 00:21:25;;;;;;;787.50;730.93;;;;;;;15.12;57.40;99728.88;338153;29;1555;-75
2022/09/23 00:21:35;;;;;;;790.33;733.72;;;;;;;15.09;57.82;99736.13;338169;29;889;-75
2022/09/23 00:21:46;;;;;;;781.90;725.60;;;;;;;15.09;57.60;99726.44;337073;29;1004;-75
2022/09/23 00:21:56;;;;;;;783.80;727.47;;;;;;;15.11;57.86;99723.69;338603;29;1324;-75
2022/09/23 00:22:07;;;;;;;781.17;724.97;;;;;;;15.12;57.68;99725.41;336799;29;1286;-75
2022/09/23 00:22:18;;;;;;;784.75;728.45;;;;;;;15.12;57.76;99726.25;331536;29;1614;-75
2022/09/23 00:22:28;;;;;;;775.88;719.83;;;;;;;15.12;57.35;99726.25;332842;29;2098;-75
2022/09/23 00:22:39;;;;;;;780.17;723.97;;;;;;;15.11;57.24;99727.19;330460;29;1634;-75
2022/09/23 00:22:49;;;;;;;772.78;716.85;;;;;;;15.11;57.05;99729.81;335411;29;1264;-75
2022/09/23 00:23:00;;;;;;;779.25;723.10;;;;;;;15.11;57.04;99726.34;337649;29;893;-75
2022/09/23 00:23:10;;;;;;;780.03;723.80;;;;;;;15.12;57.37;99731.53;334984;29;1568;-75
2022/09/23 00:23:21;;;;;;;777.65;721.45;;;;;;;15.12;57.44;99735.94;334943;29;1531;-75
2022/09/23 00:23:31;;;;;;;780.77;724.47;;;;;;;15.10;57.26;99722.84;333836;29;1463;-75
2022/09/23 00:23:42;;;;;;;779.25;723.10;;;;;;;15.08;57.18;99730.00;326612;30;1486;-75
2022/09/23 00:23:52;;;;;;;777.75;721.70;;;;;;;15.09;57.26;99725.56;327981;30;1206;-75
2022/09/23 00:24:03;;;;;;;773.40;717.20;;;;;;;15.10;57.15;99727.28;330027;29;1776;-75
2022/09/23 00:24:14;;;;;;;772.30;715.92;;;;;;;15.13;57.54;99729.72;326975;29;2412;-75
2022/09/23 00:24:25;;;;;;;776.40;719.80;;;;;;;15.11;57.22;99729.81;327733;29;2456;-75
2022/09/23 00:24:35;;;;;;;774.30;717.90;;;;;;;15.11;57.07;99728.97;325382;30;1596;-75
2022/09/23 00:24:45;;;;;;;778.43;721.97;;;;;;;15.12;57.63;99730.69;320129;30;2580;-75
2022/09/23 00:24:56;;;;;;;766.70;710.65;;;;;;;15.10;57.86;99732.56;319785;30;1992;-75
2022/09/23 00:25:07;;;;;;;761.37;705.60;;;;;;;15.11;57.35;99728.97;323365;30;852;-75
2022/09/23 00:25:18;;;;;;;754.22;698.80;;;;;;;15.12;57.16;99728.03;325559;30;1221;-75
2022/09/23 00:25:28;;;;;;;754.70;699.30;;;;;;;15.13;57.10;99727.09;324534;30;2185;-75
2022/09/23 00:25:38;;;;;;;755.17;699.80;;;;;;;15.15;56.63;99730.50;322553;30;2051;-75
2022/09/23 00:25:59;;;;;;;756.03;700.55;;;;;;;15.18;57.04;99728.50;320781;30;1342;-75
2022/09/23 00:26:11;;;;;;;751.22;695.90;;;;;;;15.19;56.82;99726.72;320446;30;2514;-75
2022/09/23 00:26:22;;;;;;;751.80;696.45;;;;;;;15.17;56.61;99733.88;324415;30;837;-75
2022/09/23 00:26:32;;;;;;;743.25;688.03;;;;;;;15.16;57.10;99729.56;322158;30;2927;-75
2022/09/23 00:26:43;;;;;;;734.13;679.03;;;;;;;15.16;57.19;99726.94;319270;30;2822;-76
2022/09/23 00:26:54;;;;;;;713.13;658.60;;;;;;;15.15;56.70;99730.50;318591;31;802;-76
2022/09/23 00:27:04;;;;;;;717.27;662.57;;;;;;;15.17;57.18;99731.22;317332;31;798;-76
2022/09/23 00:27:14;;;;;;;720.80;666.10;;;;;;;15.00;57.05;99728.72;319964;30;1971;-76
2022/09/23 00:27:25;;;;;;;723.87;668.97;;;;;;;15.00;57.17;99736.63;319806;30;1774;-76
2022/09/23 00:27:36;;;;;;;719.03;664.30;;;;;;;15.01;56.92;99733.06;318152;31;1351;-76
2022/09/23 00:27:46;;;;;;;713.85;659.20;;;;;;;15.04;57.10;99732.91;314964;31;2262;-76
2022/09/23 00:27:57;;;;;;;710.63;656.30;;;;;;;15.06;57.23;99731.03;310578;31;4296;-76
2022/09/23 00:28:08;;;;;;;709.30;655.05;;;;;;;15.08;57.60;99729.16;310658;31;3083;-76
2022/09/23 00:28:18;;;;;;;702.50;648.33;;;;;;;15.07;57.66;99727.44;309858;31;2367;-76
2022/09/23 00:28:29;;;;;;;692.47;638.33;;;;;;;15.07;57.30;99732.72;307544;31;3944;-76
2022/09/23 00:28:40;;;;;;;683.53;629.63;;;;;;;15.06;56.85;99728.38;306379;31;4440;-76
2022/09/23 00:28:50;;;;;;;677.80;624.20;;;;;;;15.07;57.33;99732.72;307461;32;813;-76
2022/09/23 00:29:01;;;;;;;685.45;631.83;;;;;;;15.07;57.02;99724.81;303065;32;3884;-76
2022/09/23 00:29:11;;;;;;;678.27;624.83;;;;;;;15.08;57.19;99730.00;301728;32;4099;-76
2022/09/23 00:29:23;;;;;;;685.10;631.45;;;;;;;15.11;57.20;99734.25;304063;32;1258;-76
2022/09/23 00:29:33;;;;;;;669.88;616.65;;;;;;;15.10;57.16;99730.75;304433;32;3143;-76
2022/09/23 00:29:43;;;;;;;671.67;618.30;;;;;;;15.07;57.24;99730.09;300125;32;2887;-76
2022/09/23 00:29:54;;;;;;;669.83;616.57;;;;;;;15.06;56.96;99728.38;297055;32;4324;-76
2022/09/23 00:30:06;;;;;;;668.03;614.75;;;;;;;15.06;56.96;99731.03;299040;32;1281;-76
2022/09/23 00:30:17;;;;;;;669.90;616.67;;;;;;;15.04;57.14;99730.25;298142;32;4515;-76
2022/09/23 00:30:28;;;;;;;678.28;624.80;;;;;;;15.04;57.04;99738.16;298151;32;4038;-76
2022/09/23 00:30:39;;;;;;;671.67;618.45;;;;;;;15.06;57.33;99728.38;296930;33;1333;-76
2022/09/23 00:30:50;;;;;;;673.08;619.70;;;;;;;15.06;57.22;99725.75;292954;33;1358;-76
2022/09/23 00:31:11;;;;;;;658.30;605.25;;;;;;;15.08;57.22;99729.16;291767;33;5872;-76
2022/09/23 00:31:22;;;;;;;664.17;610.92;;;;;;;15.10;57.48;99729.91;292982;33;1300;-76
2022/09/23 00:31:33;;;;;;;666.08;612.90;;;;;;;15.10;57.67;99732.56;292753;33;6115;-76
2022/09/23 00:31:43;;;;;;;661.70;608.60;;;;;;;15.10;57.52;99722.00;286301;34;4491;-76
2022/09/23 00:31:54;;;;;;;656.28;603.33;;;;;;;15.12;57.43;99728.03;281338;34;5004;-75
2022/09/23 00:32:06;;;;;;;657.30;604.37;;;;;;;15.12;57.42;99728.88;283641;34;1012;-75
2022/09/23 00:32:16;;;;;;;651.95;599.28;;;;;;;15.12;57.21;99726.25;282061;34;6482;-76
2022/09/23 00:32:26;;;;;;;655.70;602.97;;;;;;;15.12;57.10;99725.41;278559;34;6640;-76
2022/09/23 00:32:37;;;;;;;660.40;607.42;;;;;;;15.13;56.94;99727.09;279123;35;839;-76
2022/09/23 00:34:15;;;;;;;600.29;549.34;;;;;;;15.03;56.91;99731.19;2499775;27;20274;-75
2022/09/23 00:34:25;;;;;;;647.27;594.63;;;;;;;15.02;57.14;99725.06;354305;27;1450;-75
2022/09/23 00:34:36;;;;;;;652.33;599.55;;;;;;;15.00;57.05;99728.72;351316;28;1581;-75
2022/09/23 00:34:46;;;;;;;656.90;604.03;;;;;;;15.02;57.27;99729.50;350197;28;858;-75
2022/09/23 00:34:57;;;;;;;660.53;607.53;;;;;;;15.03;57.19;99731.19;347432;28;1377;-75
2022/09/23 00:35:07;;;;;;;672.87;619.57;;;;;;;15.03;57.03;99731.19;348840;28;967;-75
2022/09/23 00:35:18;;;;;;;694.67;640.85;;;;;;;15.02;57.09;99729.50;348720;28;1271;-75
2022/09/23 00:35:29;;;;;;;705.58;651.38;;;;;;;15.01;56.93;99727.78;347338;28;1227;-75
2022/09/23 00:35:39;;;;;;;694.60;640.70;;;;;;;15.00;57.28;99728.72;347248;28;848;-74
2022/09/23 00:35:49;;;;;;;684.88;631.17;;;;;;;15.03;57.26;99731.19;346268;28;1375;-74
2022/09/23 00:36:01;;;;;;;678.03;624.60;;;;;;;15.05;57.44;99727.53;348798;28;1301;-74
2022/09/23 00:36:15;;;;;;;673.50;620.20;;;;;;;15.05;57.22;99734.59;347486;28;1440;-74
2022/09/23 00:36:26;;;;;;;668.78;615.63;;;;;;;15.00;57.17;99726.09;348802;28;911;-74
2022/09/23 00:36:36;;;;;;;666.53;613.33;;;;;;;15.00;57.16;99731.38;348829;28;1051;-74
2022/09/23 00:36:46;;;;;;;663.23;609.97;;;;;;;15.01;57.18;99727.78;347319;28;1436;-75
2022/09/23 00:36:57;;;;;;;666.40;613.10;;;;;;;15.02;57.23;99724.22;347506;28;840;-75
2022/09/23 00:37:07;;;;;;;677.97;624.40;;;;;;;15.02;57.20;99729.50;345958;28;3727;-75
2022/09/23 00:37:18;;;;;;;674.93;621.57;;;;;;;15.04;57.14;99727.63;345214;28;3226;-75
2022/09/23 00:37:29;;;;;;;665.92;612.58;;;;;;;15.05;57.44;99724.06;348458;28;1816;-76
2022/09/23 00:37:39;;;;;;;654.13;601.05;;;;;;;15.05;57.01;99730.19;345509;28;2139;-75
2022/09/23 00:37:50;;;;;;;648.08;595.00;;;;;;;15.07;57.14;99727.44;346511;28;2589;-75
2022/09/23 00:38:00;;;;;;;654.37;601.37;;;;;;;15.06;57.92;99731.03;348450;28;1803;-75
2022/09/23 00:38:11;;;;;;;648.65;595.85;;;;;;;15.06;57.95;99731.88;347405;28;1035;-75
2022/09/23 00:38:21;;;;;;;649.70;597.05;;;;;;;15.07;57.42;99725.66;346130;28;1582;-75
2022/09/23 00:38:32;;;;;;;641.50;589.10;;;;;;;15.08;57.28;99731.78;346045;28;1200;-75
2022/09/23 00:38:44;;;;;;;647.55;594.80;;;;;;;15.09;57.00;99730.84;344736;28;1073;-75
2022/09/23 00:38:54;;;;;;;648.92;596.13;;;;;;;15.08;57.07;99727.38;344013;28;1208;-75
2022/09/23 00:39:05;;;;;;;652.22;599.33;;;;;;;15.09;57.03;99725.56;344145;28;1921;-75
2022/09/23 00:39:15;;;;;;;658.45;605.50;;;;;;;15.07;56.79;99727.44;343861;28;1348;-75
2022/09/23 00:39:26;;;;;;;665.03;611.87;;;;;;;15.04;57.33;99727.63;343418;28;1019;-75
2022/09/23 00:39:36;;;;;;;669.03;615.75;;;;;;;15.03;56.95;99733.84;344427;28;1365;-75
2022/09/23 00:39:47;;;;;;;668.20;615.00;;;;;;;15.04;57.30;99730.25;343350;28;948;-75
2022/09/23 00:39:58;;;;;;;657.58;604.42;;;;;;;15.04;57.21;99730.25;345499;28;905;-75
2022/09/23 00:40:12;;;;;;;646.65;593.78;;;;;;;15.05;56.86;99724.91;347865;28;1420;-76
2022/09/23 00:40:22;;;;;;;655.30;602.30;;;;;;;15.04;57.14;99725.00;346209;28;1307;-75
2022/09/23 00:40:32;;;;;;;665.23;611.97;;;;;;;15.04;56.92;99732.91;347472;28;888;-75
2022/09/23 00:40:46;;;;;;;674.22;620.67;;;;;;;15.04;57.21;99732.91;346421;28;1323;-75
2022/09/23 00:40:57;;;;;;;681.13;627.38;;;;;;;15.02;57.24;99729.50;345677;28;1305;-75
2022/09/23 00:41:07;;;;;;;683.72;630.03;;;;;;;15.02;57.04;99724.22;346976;28;1703;-75
2022/09/23 00:41:18;;;;;;;678.03;624.58;;;;;;;15.00;57.03;99726.94;347265;28;1389;-74
2022/09/23 00:41:28;;;;;;;678.40;624.97;;;;;;;14.98;57.27;99720.91;346090;28;1413;-76
2022/09/23 00:41:38;;;;;;;672.95;619.70;;;;;;;15.01;57.59;99722.53;343197;28;1314;-76
2022/09/23 00:41:49;;;;;;;670.67;617.47;;;;;;;15.02;56.98;99730.34;340321;28;927;-75
2022/09/23 00:41:59;;;;;;;673.88;620.55;;;;;;;15.02;57.30;99730.34;346146;28;1228;-75
2022/09/23 00:42:17;;;;;;;678.13;624.67;;;;;;;15.03;57.26;99723.28;345203;28;1418;-75
2022/09/23 00:42:27;;;;;;;687.28;633.58;;;;;;;15.02;57.30;99726.88;344356;28;1437;-75
2022/09/23 00:42:45;;;;;;;684.43;630.77;;;;;;;14.97;57.06;99730.59;344284;28;1366;-75
2022/09/23 00:42:55;;;;;;;670.10;616.80;;;;;;;14.97;57.42;99738.50;340416;28;1690;-74
2022/09/23 00:43:09;;;;;;;677.93;624.53;;;;;;;14.97;57.25;99722.69;337875;28;1976;-75
2022/09/23 00:43:19;;;;;;;675.22;621.90;;;;;;;14.97;57.23;99727.97;339588;28;1056;-75
2022/09/23 00:43:57;;;;;;;667.33;614.13;;;;;;;14.98;57.10;99724.41;344556;28;1299;-75
2022/09/23 00:44:41;;;;;;;679.58;626.17;;;;;;;14.95;57.40;99729.84;338301;28;1410;-75
2022/09/23 00:44:52;;;;;;;652.05;599.38;;;;;;;14.96;57.40;99726.28;334702;29;2054;-75
2022/09/23 00:45:03;;;;;;;661.15;608.25;;;;;;;14.93;57.17;99726.44;329123;30;1305;-75
2022/09/23 00:45:13;;;;;;;670.47;617.10;;;;;;;14.95;57.17;99732.47;329763;29;2111;-75
2022/09/23 00:45:24;;;;;;;677.27;623.70;;;;;;;14.98;57.43;99727.03;330824;29;1680;-75
2022/09/23 00:45:35;;;;;;;674.47;620.83;;;;;;;15.00;57.13;99729.59;332425;29;951;-75
2022/09/23 00:45:48;;;;;;;676.50;622.95;;;;;;;15.00;56.91;99726.94;332083;29;678;-75
2022/09/23 00:45:59;;;;;;;670.03;616.60;;;;;;;14.98;57.29;99727.03;326708;30;1179;-75
2022/09/23 00:46:12;;;;;;;674.42;621.03;;;;;;;14.99;57.30;99730.53;324713;30;1932;-75
2022/09/23 00:46:32;;;;;;;674.38;620.96;;;;;;;14.99;56.97;99735.78;324643;30;5401;-75
2022/09/23 00:46:43;;;;;;;686.47;632.60;;;;;;;14.96;57.21;99726.28;325826;30;2123;-75
2022/09/23 00:46:53;;;;;;;691.27;637.23;;;;;;;14.94;57.65;99728.16;326941;30;2318;-75
2022/09/23 00:47:03;;;;;;;690.47;636.40;;;;;;;14.93;58.38;99726.44;330206;29;5108;-75
2022/09/23 00:47:34;;;;;;;682.30;628.53;;;;;;;14.93;57.05;99726.44;328989;30;1903;-75
2022/09/23 00:48:00;;;;;;;662.60;609.65;;;;;;;14.90;57.40;99721.34;321843;30;1090;-75
2022/09/23 00:48:18;;;;;;;662.88;609.88;;;;;;;14.89;57.32;99730.19;317578;30;2055;-75
2022/09/23 00:48:28;;;;;;;667.70;614.60;;;;;;;14.87;57.56;99726.78;312657;31;3099;-75
2022/09/23 00:48:41;;;;;;;672.87;619.67;;;;;;;14.89;57.63;99722.28;311554;31;2754;-75
2022/09/23 00:48:56;;;;;;;666.78;613.65;;;;;;;14.88;57.49;99731.13;311434;31;3129;-75
2022/09/23 00:49:10;;;;;;;664.45;611.30;;;;;;;14.88;57.55;99723.22;309972;31;3380;-75
2022/09/23 00:49:26;;;;;;;668.80;615.63;;;;;;;14.89;57.64;99724.06;309979;31;3494;-75
2022/09/23 00:49:37;;;;;;;673.20;619.90;;;;;;;14.87;57.62;99720.66;314900;31;3285;-75
2022/09/23 00:49:55;;;;;;;674.60;621.23;;;;;;;14.90;57.38;99725.78;313938;31;954;-75
2022/09/23 00:50:23;;;;;;;671.00;617.70;;;;;;;14.91;57.52;99722.19;309748;31;2405;-75
2022/09/23 00:50:35;;;;;;;661.78;608.65;;;;;;;14.88;57.56;99728.50;308425;32;1479;-75
2022/09/23 00:50:48;;;;;;;670.38;617.15;;;;;;;14.88;57.77;99723.22;305293;32;1405;-75
2022/09/23 00:50:59;;;;;;;673.13;619.67;;;;;;;14.90;57.37;99726.63;303159;32;4002;-75
2022/09/23 00:51:11;;;;;;;673.27;619.70;;;;;;;14.93;57.52;99726.44;302608;32;5137;-75
2022/09/23 00:51:23;;;;;;;676.40;622.80;;;;;;;14.95;57.58;99721.94;303597;32;4558;-75
2022/09/23 00:51:36;;;;;;;668.53;615.22;;;;;;;14.98;58.06;99724.41;301145;32;1308;-75
2022/09/23 00:51:50;;;;;;;667.10;613.80;;;;;;;15.00;57.62;99721.69;298468;33;1294;-75
2022/09/23 00:52:04;;;;;;;676.88;623.26;;;;;;;15.00;57.30;99723.47;301848;32;1276;-75
2022/09/23 00:52:16;;;;;;;689.70;635.90;;;;;;;15.00;57.39;99721.69;298937;33;1388;-75
2022/09/23 00:52:27;;;;;;;689.45;635.65;;;;;;;14.99;57.51;99727.88;297237;32;3619;-75
2022/09/23 00:52:37;;;;;;;688.87;635.07;;;;;;;14.97;57.08;99725.34;293707;32;4676;-75
2022/09/23 00:52:48;;;;;;;688.25;634.33;;;;;;;14.97;57.34;99722.69;292228;33;984;-75
2022/09/23 00:52:58;;;;;;;682.83;629.10;;;;;;;14.95;57.08;99724.56;297482;32;5535;-75
2022/09/23 00:53:13;;;;;;;679.58;625.97;;;;;;;14.96;57.58;99723.63;295961;33;5878;-76
2022/09/23 00:53:25;;;;;;;674.50;621.05;;;;;;;14.98;57.67;99724.41;294676;33;6441;-75
2022/09/23 00:53:36;;;;;;;674.95;621.45;;;;;;;15.00;57.41;99731.38;291099;33;5790;-75
2022/09/23 00:53:46;;;;;;;676.85;623.25;;;;;;;14.98;57.36;99724.41;290336;34;1369;-75
2022/09/23 00:53:57;;;;;;;682.80;629.15;;;;;;;14.98;57.32;99720.91;288960;34;6502;-75
2022/09/23 00:54:07;;;;;;;676.27;622.87;;;;;;;14.96;57.65;99726.28;289847;33;6605;-75
2022/09/23 00:54:18;;;;;;;669.47;616.20;;;;;;;14.94;57.45;99722.03;291130;34;1423;-75
2022/09/23 00:54:28;;;;;;;674.47;620.93;;;;;;;14.95;57.20;99727.22;287419;34;4722;-76
2022/09/23 00:54:38;;;;;;;700.00;645.63;;;;;;;14.97;57.24;99725.34;287506;33;5726;-75
2022/09/23 00:54:50;;;;;;;705.70;651.20;;;;;;;14.97;57.04;99720.06;290071;34;1243;-75
2022/09/23 00:55:04;;;;;;;696.92;642.75;;;;;;;14.98;57.17;99719.13;288214;34;1109;-75
2022/09/23 00:56:49;;;;;;;645.66;593.52;;;;;;;14.96;57.32;99723.63;2493033;27;20276;-75
2022/09/23 00:56:59;;;;;;;692.70;638.80;;;;;;;14.97;57.27;99725.34;351550;28;923;-75
2022/09/23 00:57:10;;;;;;;691.58;637.70;;;;;;;14.98;56.87;99723.56;348794;28;1210;-75
2022/09/23 00:57:20;;;;;;;702.87;648.67;;;;;;;14.97;57.03;99722.69;346589;28;1204;-75
2022/09/23 00:57:30;;;;;;;696.90;642.92;;;;;;;14.98;57.27;99723.56;348658;28;1342;-75
2022/09/23 00:57:41;;;;;;;697.00;643.00;;;;;;;15.00;57.37;99726.09;347367;28;1315;-75
2022/09/23 00:57:53;;;;;;;685.42;631.88;;;;;;;14.97;57.23;99722.69;348766;28;1157;-75
2022/09/23 00:58:04;;;;;;;684.78;631.28;;;;;;;14.95;57.34;99724.56;350107;28;1403;-75
2022/09/23 00:58:16;;;;;;;687.30;633.75;;;;;;;14.96;57.27;99725.41;347227;28;1382;-75
2022/09/23 00:58:30;;;;;;;686.13;632.45;;;;;;;14.97;57.43;99722.69;346644;28;1704;-75